createdAt,value
2019-05-05T00:00:14.510Z,1015.1
2019-05-05T00:01:14.746Z,1015.1
2019-05-05T00:02:14.553Z,1015.2
2019-05-05T00:03:14.802Z,1015.1
2019-05-05T00:04:14.957Z,1015.2
2019-05-05T00:05:15.432Z,1015.1
2019-05-05T00:06:14.798Z,1015.1
2019-05-05T00:07:14.944Z,1015.1
2019-05-05T00:08:15.308Z,1015.1
2019-05-05T00:09:14.792Z,1015.1
2019-05-05T00:10:15.170Z,1015.2
2019-05-05T00:11:15.348Z,1015.1
2019-05-05T00:12:14.853Z,1015.1
2019-05-05T00:13:15.030Z,1015.1
2019-05-05T00:14:15.245Z,1015.1
2019-05-05T00:15:14.894Z,1015.2
2019-05-05T00:16:15.207Z,1015.2
2019-05-05T00:17:14.939Z,1015.1
2019-05-05T00:18:14.987Z,1015.2
2019-05-05T00:19:23.282Z,1015.2
2019-05-05T00:20:14.998Z,1015.2
2019-05-05T00:21:15.221Z,1015.2
2019-05-05T00:22:15.268Z,1015.1
2019-05-05T00:23:15.130Z,1015.1
2019-05-05T00:24:15.259Z,1015.2
2019-05-05T00:25:15.159Z,1015.1
2019-05-05T00:26:15.175Z,1015.1
2019-05-05T00:27:15.212Z,1015.2
2019-05-05T00:28:15.240Z,1015.2
2019-05-05T00:29:15.235Z,1015.3
2019-05-05T00:30:15.249Z,1015.2
2019-05-05T00:31:15.272Z,1015.3
2019-05-05T00:32:15.502Z,1015.2
2019-05-05T00:33:15.340Z,1015.3
2019-05-05T00:34:15.564Z,1015.2
2019-05-05T00:35:15.352Z,1015.3
2019-05-05T00:36:15.381Z,1015.4
2019-05-05T00:37:15.378Z,1015.2
2019-05-05T00:38:15.433Z,1015.3
2019-05-05T00:39:15.441Z,1015.3
2019-05-05T00:40:15.430Z,1015.3
2019-05-05T00:41:15.448Z,1015.2
2019-05-05T00:42:15.620Z,1015.3
2019-05-05T00:43:17.706Z,1015.3
2019-05-05T00:44:15.516Z,1015.3
2019-05-05T00:45:15.475Z,1015.3
2019-05-05T00:46:16.523Z,1015.2
2019-05-05T00:47:15.489Z,1015.4
2019-05-05T00:48:17.809Z,1015.3
2019-05-05T00:49:15.526Z,1015.4
2019-05-05T00:50:15.534Z,1015.4
2019-05-05T00:51:15.539Z,1015.5
2019-05-05T00:52:15.539Z,1015.4
2019-05-05T00:53:15.538Z,1015.4
2019-05-05T00:54:15.562Z,1015.4
2019-05-05T00:55:15.550Z,1015.4
2019-05-05T00:56:15.576Z,1015.5
2019-05-05T00:57:15.570Z,1015.5
2019-05-05T00:58:15.554Z,1015.5
2019-05-05T00:59:15.575Z,1015.6
2019-05-05T01:00:15.573Z,1015.7
2019-05-05T01:01:15.582Z,1015.7
2019-05-05T01:02:15.592Z,1015.7
2019-05-05T01:03:15.591Z,1015.7
2019-05-05T01:04:15.590Z,1015.7
2019-05-05T01:05:15.582Z,1015.7
2019-05-05T01:06:15.593Z,1015.7
2019-05-05T01:07:15.605Z,1015.8
2019-05-05T01:08:15.581Z,1015.8
2019-05-05T01:09:15.669Z,1015.8
2019-05-05T01:10:15.654Z,1015.8
2019-05-05T01:11:15.684Z,1015.8
2019-05-05T01:12:15.753Z,1015.8
2019-05-05T01:13:15.852Z,1015.8
2019-05-05T01:14:15.852Z,1015.9
2019-05-05T01:15:15.877Z,1015.8
2019-05-05T01:16:15.935Z,1015.8
2019-05-05T01:17:16.011Z,1015.8
2019-05-05T01:18:16.029Z,1015.8
2019-05-05T01:19:16.102Z,1015.8
2019-05-05T01:20:16.112Z,1015.8
2019-05-05T01:21:16.306Z,1015.8
2019-05-05T01:22:16.197Z,1015.9
2019-05-05T01:23:16.268Z,1015.8
2019-05-05T01:24:16.281Z,1015.8
2019-05-05T01:25:16.352Z,1015.8
2019-05-05T01:26:16.342Z,1015.9
2019-05-05T01:27:16.399Z,1015.9
2019-05-05T01:28:16.402Z,1016
2019-05-05T01:29:16.554Z,1016
2019-05-05T01:30:16.476Z,1016
2019-05-05T01:31:16.579Z,1016
2019-05-05T01:32:16.599Z,1016
2019-05-05T01:33:16.677Z,1016
2019-05-05T01:34:16.699Z,1016
2019-05-05T01:35:16.771Z,1016
2019-05-05T01:36:16.801Z,1016
2019-05-05T01:37:16.842Z,1016
2019-05-05T01:38:16.935Z,1016
2019-05-05T01:39:16.985Z,1016
2019-05-05T01:40:17.014Z,1016
2019-05-05T01:41:17.087Z,1016
2019-05-05T01:42:17.119Z,1016
2019-05-05T01:43:17.171Z,1016.1
2019-05-05T01:44:17.218Z,1016.1
2019-05-05T01:45:17.557Z,1016.1
2019-05-05T01:46:17.284Z,1016.1
2019-05-05T01:47:17.312Z,1016.1
2019-05-05T01:48:17.349Z,1016.1
2019-05-05T01:49:17.454Z,1016.1
2019-05-05T01:50:21.101Z,1016
2019-05-05T01:51:17.484Z,1016.1
2019-05-05T01:52:17.505Z,1016.1
2019-05-05T01:53:17.534Z,1016.2
2019-05-05T01:54:17.543Z,1016.2
2019-05-05T01:55:17.543Z,1016.3
2019-05-05T01:56:17.560Z,1016.2
2019-05-05T01:57:17.579Z,1016.2
2019-05-05T01:58:17.634Z,1016.2
2019-05-05T01:59:17.682Z,1016.2
2019-05-05T02:00:17.754Z,1016.2
2019-05-05T02:01:17.769Z,1016.2
2019-05-05T02:02:17.818Z,1016.3
2019-05-05T02:03:17.822Z,1016.3
2019-05-05T02:04:17.878Z,1016.3
2019-05-05T02:05:17.926Z,1016.3
2019-05-05T02:06:17.944Z,1016.4
2019-05-05T02:07:18.019Z,1016.3
2019-05-05T02:08:18.050Z,1016.4
2019-05-05T02:09:18.078Z,1016.4
2019-05-05T02:10:18.121Z,1016.3
2019-05-05T02:11:18.134Z,1016.3
2019-05-05T02:12:18.182Z,1016.4
2019-05-05T02:13:18.213Z,1016.4
2019-05-05T02:14:18.262Z,1016.4
2019-05-05T02:15:18.286Z,1016.5
2019-05-05T02:16:18.311Z,1016.5
2019-05-05T02:17:18.344Z,1016.5
2019-05-05T02:18:18.393Z,1016.6
2019-05-05T02:19:18.408Z,1016.5
2019-05-05T02:20:28.714Z,1016.5
2019-05-05T02:21:18.471Z,1016.5
2019-05-05T02:22:18.532Z,1016.4
2019-05-05T02:23:18.523Z,1016.5
2019-05-05T02:24:18.555Z,1016.4
2019-05-05T02:25:18.581Z,1016.5
2019-05-05T02:26:18.672Z,1016.5
2019-05-05T02:27:19.743Z,1016.5
2019-05-05T02:28:18.641Z,1016.5
2019-05-05T02:29:18.642Z,1016.6
2019-05-05T02:30:18.684Z,1016.6
2019-05-05T02:31:18.677Z,1016.6
2019-05-05T02:32:18.698Z,1016.7
2019-05-05T02:33:18.718Z,1016.7
2019-05-05T02:34:18.752Z,1016.7
2019-05-05T02:35:18.735Z,1016.6
2019-05-05T02:36:18.724Z,1016.8
2019-05-05T02:37:18.790Z,1016.8
2019-05-05T02:38:18.806Z,1016.8
2019-05-05T02:39:18.808Z,1016.8
2019-05-05T02:40:18.823Z,1016.8
2019-05-05T02:41:18.831Z,1016.8
2019-05-05T02:42:18.833Z,1016.8
2019-05-05T02:43:18.852Z,1016.7
2019-05-05T02:44:18.960Z,1016.8
2019-05-05T02:45:18.912Z,1016.7
2019-05-05T02:46:18.889Z,1016.7
2019-05-05T02:47:18.914Z,1016.7
2019-05-05T02:48:18.903Z,1016.7
2019-05-05T02:49:18.901Z,1016.7
2019-05-05T02:50:18.925Z,1016.8
2019-05-05T02:51:18.938Z,1016.8
2019-05-05T02:52:18.916Z,1016.9
2019-05-05T02:53:18.929Z,1017
2019-05-05T02:54:18.943Z,1016.9
2019-05-05T02:55:18.924Z,1017
2019-05-05T02:56:18.930Z,1017
2019-05-05T02:57:18.976Z,1017.1
2019-05-05T02:58:19.141Z,1017.1
2019-05-05T02:59:19.115Z,1017.1
2019-05-05T03:00:19.164Z,1017.2
2019-05-05T03:01:19.188Z,1017.2
2019-05-05T03:02:19.233Z,1017.2
2019-05-05T03:03:19.280Z,1017.3
2019-05-05T03:04:19.296Z,1017.2
2019-05-05T03:05:19.375Z,1017.1
2019-05-05T03:06:19.411Z,1017.2
2019-05-05T03:07:19.470Z,1017.1
2019-05-05T03:08:19.465Z,1017
2019-05-05T03:09:19.556Z,1017.1
2019-05-05T03:10:19.545Z,1017
2019-05-05T03:11:19.565Z,1017
2019-05-05T03:12:19.650Z,1017.1
2019-05-05T03:13:19.698Z,1017.2
2019-05-05T03:14:19.735Z,1017.1
2019-05-05T03:15:19.832Z,1017.1
2019-05-05T03:16:19.826Z,1017.2
2019-05-05T03:17:19.827Z,1017.1
2019-05-05T03:18:19.893Z,1017.2
2019-05-05T03:19:19.947Z,1017.2
2019-05-05T03:20:19.992Z,1017.3
2019-05-05T03:21:20.059Z,1017.2
2019-05-05T03:22:20.097Z,1017.3
2019-05-05T03:23:20.167Z,1017.3
2019-05-05T03:24:20.171Z,1017.3
2019-05-05T03:25:20.258Z,1017.3
2019-05-05T03:26:20.274Z,1017.3
2019-05-05T03:27:20.359Z,1017.3
2019-05-05T03:28:20.343Z,1017.3
2019-05-05T03:29:20.357Z,1017.4
2019-05-05T03:30:20.398Z,1017.4
2019-05-05T03:31:20.451Z,1017.4
2019-05-05T03:32:20.456Z,1017.4
2019-05-05T03:33:20.448Z,1017.5
2019-05-05T03:34:20.518Z,1017.4
2019-05-05T03:35:20.587Z,1017.4
2019-05-05T03:36:20.615Z,1017.5
2019-05-05T03:37:20.601Z,1017.5
2019-05-05T03:38:20.611Z,1017.4
2019-05-05T03:39:20.641Z,1017.4
2019-05-05T03:40:20.754Z,1017.5
2019-05-05T03:41:20.755Z,1017.4
2019-05-05T03:42:20.738Z,1017.4
2019-05-05T03:43:20.796Z,1017.4
2019-05-05T03:44:20.840Z,1017.4
2019-05-05T03:45:20.909Z,1017.5
2019-05-05T03:46:20.931Z,1017.5
2019-05-05T03:47:20.969Z,1017.6
2019-05-05T03:48:20.990Z,1017.6
2019-05-05T03:49:21.042Z,1017.5
2019-05-05T03:50:21.068Z,1017.5
2019-05-05T03:51:21.331Z,1017.6
2019-05-05T03:52:21.153Z,1017.6
2019-05-05T03:53:21.195Z,1017.5
2019-05-05T03:54:21.189Z,1017.6
2019-05-05T03:55:21.250Z,1017.5
2019-05-05T03:56:21.274Z,1017.6
2019-05-05T03:57:21.297Z,1017.6
2019-05-05T03:58:21.299Z,1017.7
2019-05-05T03:59:21.344Z,1017.5
2019-05-05T04:00:23.401Z,1017.6
2019-05-05T04:01:21.398Z,1017.6
2019-05-05T04:02:23.269Z,1017.6
2019-05-05T04:03:21.428Z,1017.6
2019-05-05T04:04:21.435Z,1017.7
2019-05-05T04:05:23.380Z,1017.7
2019-05-05T04:06:23.380Z,1017.7
2019-05-05T04:07:21.514Z,1017.7
2019-05-05T04:08:23.313Z,1017.6
2019-05-05T04:09:21.605Z,1017.7
2019-05-05T04:10:21.576Z,1017.7
2019-05-05T04:11:23.511Z,1017.8
2019-05-05T04:12:21.607Z,1017.7
2019-05-05T04:13:21.630Z,1017.8
2019-05-05T04:14:21.672Z,1017.7
2019-05-05T04:15:21.654Z,1017.7
2019-05-05T04:16:23.547Z,1017.7
2019-05-05T04:17:21.642Z,1017.7
2019-05-05T04:18:23.654Z,1017.7
2019-05-05T04:19:23.549Z,1017.7
2019-05-05T04:20:21.697Z,1017.7
2019-05-05T04:21:31.060Z,1017.7
2019-05-05T04:22:23.567Z,1017.7
2019-05-05T04:23:21.726Z,1017.7
2019-05-05T04:24:23.658Z,1017.7
2019-05-05T04:25:21.799Z,1017.8
2019-05-05T04:26:23.448Z,1017.8
2019-05-05T04:28:23.902Z,1017.7
2019-05-05T04:29:21.777Z,1017.7
2019-05-05T04:30:23.627Z,1017.7
2019-05-05T04:31:23.969Z,1017.6
2019-05-05T04:32:21.798Z,1017.6
2019-05-05T04:33:23.611Z,1017.6
2019-05-05T04:34:23.898Z,1017.6
2019-05-05T04:35:21.815Z,1017.6
2019-05-05T04:36:23.507Z,1017.6
2019-05-05T04:37:23.686Z,1017.6
2019-05-05T04:38:21.822Z,1017.6
2019-05-05T04:39:23.632Z,1017.7
2019-05-05T04:40:23.791Z,1017.7
2019-05-05T04:41:21.984Z,1017.7
2019-05-05T04:42:22.002Z,1017.7
2019-05-05T04:43:22.025Z,1017.6
2019-05-05T04:44:23.611Z,1017.7
2019-05-05T04:45:23.534Z,1017.7
2019-05-05T04:46:24.329Z,1017.7
2019-05-05T04:47:23.739Z,1017.7
2019-05-05T04:48:24.121Z,1017.8
2019-05-05T04:49:23.466Z,1017.8
2019-05-05T04:50:23.855Z,1017.7
2019-05-05T04:51:24.296Z,1017.8
2019-05-05T04:52:23.603Z,1017.8
2019-05-05T04:53:24.083Z,1017.7
2019-05-05T04:54:24.377Z,1017.7
2019-05-05T04:55:24.433Z,1017.7
2019-05-05T04:56:23.422Z,1017.7
2019-05-05T04:57:25.116Z,1017.7
2019-05-05T04:58:24.231Z,1017.7
2019-05-05T04:59:23.488Z,1017.7
2019-05-05T05:00:24.120Z,1017.7
2019-05-05T05:01:24.048Z,1017.7
2019-05-05T05:02:23.588Z,1017.7
2019-05-05T05:03:23.923Z,1017.8
2019-05-05T05:04:24.275Z,1017.8
2019-05-05T05:05:24.399Z,1017.8
2019-05-05T05:06:23.659Z,1017.9
2019-05-05T05:07:24.119Z,1017.9
2019-05-05T05:08:24.703Z,1018
2019-05-05T05:09:23.797Z,1018
2019-05-05T05:10:24.025Z,1017.9
2019-05-05T05:11:24.614Z,1017.9
2019-05-05T05:12:23.774Z,1017.9
2019-05-05T05:13:24.429Z,1017.9
2019-05-05T05:14:24.656Z,1017.9
2019-05-05T05:15:23.992Z,1017.9
2019-05-05T05:16:24.223Z,1017.9
2019-05-05T05:17:24.846Z,1017.9
2019-05-05T05:18:24.106Z,1018
2019-05-05T05:19:24.159Z,1018
2019-05-05T05:20:24.632Z,1018
2019-05-05T05:21:23.731Z,1018
2019-05-05T05:22:24.250Z,1018
2019-05-05T05:23:24.614Z,1018
2019-05-05T05:24:23.801Z,1018
2019-05-05T05:25:24.034Z,1018.1
2019-05-05T05:26:24.266Z,1018
2019-05-05T05:27:24.422Z,1018.1
2019-05-05T05:28:23.820Z,1018
2019-05-05T05:29:23.957Z,1018.1
2019-05-05T05:30:24.295Z,1018.1
2019-05-05T05:31:24.440Z,1018
2019-05-05T05:32:24.663Z,1018
2019-05-05T05:33:24.007Z,1018.1
2019-05-05T05:34:23.993Z,1018.1
2019-05-05T05:35:24.457Z,1018.1
2019-05-05T05:36:24.736Z,1018.1
2019-05-05T05:37:24.159Z,1018.1
2019-05-05T05:38:24.266Z,1018.1
2019-05-05T05:39:24.476Z,1018.1
2019-05-05T05:40:24.037Z,1018
2019-05-05T05:41:24.105Z,1018.1
2019-05-05T05:42:24.220Z,1018.1
2019-05-05T05:43:25.339Z,1018.1
2019-05-05T05:44:26.408Z,1018.2
2019-05-05T05:45:24.207Z,1018.1
2019-05-05T05:46:24.217Z,1018.2
2019-05-05T05:47:24.465Z,1018.1
2019-05-05T05:48:24.291Z,1018.2
2019-05-05T05:49:24.345Z,1018.2
2019-05-05T05:50:24.553Z,1018.2
2019-05-05T05:51:24.353Z,1018.3
2019-05-05T05:52:24.428Z,1018.2
2019-05-05T05:53:24.562Z,1018.2
2019-05-05T05:54:24.405Z,1018.3
2019-05-05T05:55:24.412Z,1018.3
2019-05-05T05:56:24.926Z,1018.3
2019-05-05T05:57:24.441Z,1018.3
2019-05-05T05:58:24.640Z,1018.4
2019-05-05T05:59:24.774Z,1018.4
2019-05-05T06:00:24.519Z,1018.3
2019-05-05T06:01:24.528Z,1018.4
2019-05-05T06:02:24.507Z,1018.4
2019-05-05T06:03:24.663Z,1018.4
2019-05-05T06:04:24.556Z,1018.4
2019-05-05T06:05:24.547Z,1018.4
2019-05-05T06:06:24.578Z,1018.4
2019-05-05T06:07:24.613Z,1018.4
2019-05-05T06:08:24.575Z,1018.3
2019-05-05T06:09:24.559Z,1018.4
2019-05-05T06:10:27.282Z,1018.4
2019-05-05T06:11:24.594Z,1018.4
2019-05-05T06:12:24.687Z,1018.4
2019-05-05T06:13:24.606Z,1018.5
2019-05-05T06:14:25.614Z,1018.5
2019-05-05T06:15:24.633Z,1018.6
2019-05-05T06:16:24.638Z,1018.5
2019-05-05T06:17:24.696Z,1018.5
2019-05-05T06:18:24.789Z,1018.6
2019-05-05T06:19:24.762Z,1018.5
2019-05-05T06:20:24.773Z,1018.6
2019-05-05T06:21:24.810Z,1018.6
2019-05-05T06:22:29.094Z,1018.6
2019-05-05T06:23:24.838Z,1018.5
2019-05-05T06:24:24.925Z,1018.6
2019-05-05T06:25:26.517Z,1018.6
2019-05-05T06:26:25.014Z,1018.6
2019-05-05T06:27:25.064Z,1018.5
2019-05-05T06:28:25.187Z,1018.5
2019-05-05T06:29:25.125Z,1018.5
2019-05-05T06:30:25.178Z,1018.6
2019-05-05T06:31:25.259Z,1018.5
2019-05-05T06:32:25.312Z,1018.6
2019-05-05T06:33:25.335Z,1018.6
2019-05-05T06:34:25.380Z,1018.6
2019-05-05T06:35:25.456Z,1018.6
2019-05-05T06:36:25.508Z,1018.6
2019-05-05T06:37:25.567Z,1018.6
2019-05-05T06:38:25.665Z,1018.7
2019-05-05T06:39:25.637Z,1018.6
2019-05-05T06:40:25.686Z,1018.6
2019-05-05T06:41:25.728Z,1018.5
2019-05-05T06:42:25.762Z,1018.5
2019-05-05T06:43:25.815Z,1018.4
2019-05-05T06:44:25.815Z,1018.5
2019-05-05T06:45:25.895Z,1018.5
2019-05-05T06:46:25.930Z,1018.5
2019-05-05T06:47:25.976Z,1018.6
2019-05-05T06:48:26.073Z,1018.7
2019-05-05T06:49:26.082Z,1018.5
2019-05-05T06:50:26.129Z,1018.5
2019-05-05T06:51:26.194Z,1018.6
2019-05-05T06:52:26.232Z,1018.6
2019-05-05T06:53:26.284Z,1018.6
2019-05-05T06:54:26.355Z,1018.6
2019-05-05T06:55:26.378Z,1018.6
2019-05-05T06:56:26.461Z,1018.6
2019-05-05T06:57:26.495Z,1018.6
2019-05-05T06:58:26.518Z,1018.5
2019-05-05T06:59:26.565Z,1018.6
2019-05-05T07:00:26.631Z,1018.6
2019-05-05T07:01:26.670Z,1018.6
2019-05-05T07:02:26.688Z,1018.6
2019-05-05T07:03:26.730Z,1018.6
2019-05-05T07:04:26.770Z,1018.6
2019-05-05T07:05:26.822Z,1018.7
2019-05-05T07:06:26.861Z,1018.6
2019-05-05T07:07:26.894Z,1018.6
2019-05-05T07:08:26.932Z,1018.7
2019-05-05T07:09:26.974Z,1018.7
2019-05-05T07:10:27.009Z,1018.7
2019-05-05T07:11:27.106Z,1018.7
2019-05-05T07:12:27.106Z,1018.6
2019-05-05T07:13:27.122Z,1018.6
2019-05-05T07:14:27.143Z,1018.6
2019-05-05T07:15:27.154Z,1018.6
2019-05-05T07:16:27.222Z,1018.6
2019-05-05T07:17:27.268Z,1018.6
2019-05-05T07:18:27.287Z,1018.6
2019-05-05T07:19:27.324Z,1018.5
2019-05-05T07:20:27.367Z,1018.6
2019-05-05T07:21:27.359Z,1018.6
2019-05-05T07:22:27.418Z,1018.5
2019-05-05T07:23:27.426Z,1018.6
2019-05-05T07:24:27.456Z,1018.6
2019-05-05T07:25:39.791Z,1018.6
2019-05-05T07:26:27.484Z,1018.6
2019-05-05T07:27:27.511Z,1018.7
2019-05-05T07:28:27.542Z,1018.7
2019-05-05T07:29:27.558Z,1018.8
2019-05-05T07:30:27.592Z,1018.7
2019-05-05T07:31:27.596Z,1018.7
2019-05-05T07:32:27.716Z,1018.7
2019-05-05T07:33:27.650Z,1018.8
2019-05-05T07:34:27.673Z,1018.8
2019-05-05T07:35:27.671Z,1018.8
2019-05-05T07:36:27.713Z,1018.8
2019-05-05T07:37:27.705Z,1018.8
2019-05-05T07:38:27.722Z,1018.8
2019-05-05T07:39:27.758Z,1018.8
2019-05-05T07:40:27.780Z,1018.8
2019-05-05T07:41:27.779Z,1018.8
2019-05-05T07:42:27.792Z,1018.8
2019-05-05T07:43:27.837Z,1018.7
2019-05-05T07:44:29.635Z,1018.7
2019-05-05T07:45:27.845Z,1018.8
2019-05-05T07:46:27.904Z,1018.7
2019-05-05T07:47:27.859Z,1018.7
2019-05-05T07:48:27.857Z,1018.7
2019-05-05T07:49:27.888Z,1018.6
2019-05-05T07:50:32.076Z,1018.6
2019-05-05T07:51:27.920Z,1018.7
2019-05-05T07:52:27.908Z,1018.8
2019-05-05T07:53:27.916Z,1018.8
2019-05-05T07:54:27.932Z,1018.7
2019-05-05T07:55:27.945Z,1018.7
2019-05-05T07:56:27.945Z,1018.7
2019-05-05T07:57:27.938Z,1018.7
2019-05-05T07:58:27.962Z,1018.7
2019-05-05T07:59:27.946Z,1018.8
2019-05-05T08:00:27.961Z,1018.7
2019-05-05T08:01:28.002Z,1018.8
2019-05-05T08:02:28.085Z,1018.7
2019-05-05T08:03:27.958Z,1018.8
2019-05-05T08:04:28.053Z,1018.7
2019-05-05T08:05:28.115Z,1018.7
2019-05-05T08:06:28.159Z,1018.8
2019-05-05T08:07:28.229Z,1018.8
2019-05-05T08:08:28.291Z,1018.8
2019-05-05T08:09:28.323Z,1018.8
2019-05-05T08:10:28.384Z,1018.8
2019-05-05T08:11:28.452Z,1018.8
2019-05-05T08:12:28.475Z,1018.9
2019-05-05T08:13:28.488Z,1018.9
2019-05-05T08:14:28.579Z,1018.8
2019-05-05T08:15:28.646Z,1018.8
2019-05-05T08:16:28.670Z,1018.8
2019-05-05T08:17:28.969Z,1018.8
2019-05-05T08:18:28.933Z,1018.9
2019-05-05T08:19:28.971Z,1018.8
2019-05-05T08:20:28.874Z,1018.7
2019-05-05T08:21:29.197Z,1018.8
2019-05-05T08:22:28.944Z,1018.7
2019-05-05T08:23:32.600Z,1018.7
2019-05-05T08:24:29.028Z,1018.7
2019-05-05T08:25:37.320Z,1018.7
2019-05-05T08:26:29.091Z,1018.7
2019-05-05T08:27:29.164Z,1018.7
2019-05-05T08:28:29.194Z,1018.7
2019-05-05T08:29:29.198Z,1018.7
2019-05-05T08:30:29.275Z,1018.6
2019-05-05T08:31:29.281Z,1018.7
2019-05-05T08:32:32.328Z,1018.6
2019-05-05T08:33:29.339Z,1018.6
2019-05-05T08:34:29.391Z,1018.6
2019-05-05T08:35:29.435Z,1018.6
2019-05-05T08:36:29.433Z,1018.6
2019-05-05T08:37:29.494Z,1018.6
2019-05-05T08:38:29.531Z,1018.6
2019-05-05T08:39:29.559Z,1018.6
2019-05-05T08:40:29.614Z,1018.5
2019-05-05T08:41:29.668Z,1018.6
2019-05-05T08:42:29.671Z,1018.6
2019-05-05T08:43:29.719Z,1018.6
2019-05-05T08:44:29.748Z,1018.6
2019-05-05T08:45:29.768Z,1018.5
2019-05-05T08:46:29.825Z,1018.5
2019-05-05T08:47:29.948Z,1018.5
2019-05-05T08:48:29.908Z,1018.5
2019-05-05T08:49:29.959Z,1018.5
2019-05-05T08:50:29.963Z,1018.5
2019-05-05T08:51:30.110Z,1018.5
2019-05-05T08:52:30.059Z,1018.5
2019-05-05T08:53:41.450Z,1018.5
2019-05-05T08:54:30.124Z,1018.5
2019-05-05T08:55:30.161Z,1018.6
2019-05-05T08:56:30.198Z,1018.5
2019-05-05T08:57:30.249Z,1018.5
2019-05-05T08:58:30.307Z,1018.5
2019-05-05T08:59:30.343Z,1018.6
2019-05-05T09:00:30.370Z,1018.5
2019-05-05T09:01:30.423Z,1018.6
2019-05-05T09:02:33.072Z,1018.6
2019-05-05T09:03:30.465Z,1018.6
2019-05-05T09:04:30.516Z,1018.5
2019-05-05T09:05:30.550Z,1018.6
2019-05-05T09:06:30.589Z,1018.4
2019-05-05T09:07:30.583Z,1018.5
2019-05-05T09:08:30.667Z,1018.4
2019-05-05T09:09:30.648Z,1018.4
2019-05-05T09:10:30.684Z,1018.5
2019-05-05T09:11:30.713Z,1018.6
2019-05-05T09:12:30.829Z,1018.5
2019-05-05T09:13:30.786Z,1018.4
2019-05-05T09:14:30.789Z,1018.5
2019-05-05T09:15:30.841Z,1018.5
2019-05-05T09:16:30.839Z,1018.4
2019-05-05T09:17:30.849Z,1018.4
2019-05-05T09:18:30.900Z,1018.3
2019-05-05T09:19:30.889Z,1018.4
2019-05-05T09:20:30.918Z,1018.4
2019-05-05T09:21:38.279Z,1018.5
2019-05-05T09:22:30.915Z,1018.5
2019-05-05T09:23:30.944Z,1018.5
2019-05-05T09:24:30.930Z,1018.5
2019-05-05T09:25:30.958Z,1018.5
2019-05-05T09:26:30.978Z,1018.5
2019-05-05T09:27:30.992Z,1018.5
2019-05-05T09:28:31.008Z,1018.6
2019-05-05T09:29:31.041Z,1018.5
2019-05-05T09:30:31.059Z,1018.6
2019-05-05T09:31:31.052Z,1018.6
2019-05-05T09:32:31.067Z,1018.6
2019-05-05T09:33:31.104Z,1018.6
2019-05-05T09:34:31.099Z,1018.7
2019-05-05T09:35:31.154Z,1018.7
2019-05-05T09:36:31.156Z,1018.7
2019-05-05T09:37:31.150Z,1018.8
2019-05-05T09:38:31.262Z,1018.7
2019-05-05T09:39:31.174Z,1018.6
2019-05-05T09:40:31.197Z,1018.6
2019-05-05T09:41:31.181Z,1018.6
2019-05-05T09:42:31.206Z,1018.7
2019-05-05T09:43:31.185Z,1018.7
2019-05-05T09:44:31.222Z,1018.7
2019-05-05T09:45:31.203Z,1018.7
2019-05-05T09:46:31.211Z,1018.7
2019-05-05T09:47:31.232Z,1018.8
2019-05-05T09:48:33.344Z,1018.7
2019-05-05T09:49:31.229Z,1018.7
2019-05-05T09:50:31.266Z,1018.8
2019-05-05T09:51:31.428Z,1018.8
2019-05-05T09:52:31.360Z,1018.8
2019-05-05T09:53:31.404Z,1018.8
2019-05-05T09:54:31.461Z,1019
2019-05-05T09:55:33.363Z,1018.8
2019-05-05T09:56:31.547Z,1018.9
2019-05-05T09:57:31.604Z,1018.9
2019-05-05T09:58:31.679Z,1018.8
2019-05-05T09:59:31.739Z,1018.8
2019-05-05T10:00:33.613Z,1018.8
2019-05-05T10:01:33.692Z,1018.8
2019-05-05T10:02:31.903Z,1018.9
2019-05-05T10:03:33.942Z,1018.9
2019-05-05T10:04:32.042Z,1018.9
2019-05-05T10:05:34.021Z,1018.9
2019-05-05T10:06:33.677Z,1019
2019-05-05T10:07:32.215Z,1019
2019-05-05T10:08:34.047Z,1018.9
2019-05-05T10:09:34.229Z,1019.1
2019-05-05T10:10:33.683Z,1018.9
2019-05-05T10:11:32.427Z,1018.9
2019-05-05T10:12:33.769Z,1018.8
2019-05-05T10:13:33.584Z,1018.9
2019-05-05T10:14:34.105Z,1018.9
2019-05-05T10:15:32.541Z,1018.8
2019-05-05T10:16:32.609Z,1018.8
2019-05-05T10:17:33.603Z,1018.8
2019-05-05T10:18:34.724Z,1018.7
2019-05-05T10:19:32.725Z,1018.7
2019-05-05T10:20:34.332Z,1018.8
2019-05-05T10:21:33.877Z,1018.7
2019-05-05T10:22:34.288Z,1018.7
2019-05-05T10:23:34.148Z,1018.8
2019-05-05T10:24:33.823Z,1018.9
2019-05-05T10:25:34.293Z,1018.9
2019-05-05T10:26:34.418Z,1018.8
2019-05-05T10:27:44.164Z,1019
2019-05-05T10:28:34.036Z,1018.9
2019-05-05T10:29:33.110Z,1018.9
2019-05-05T10:30:33.142Z,1018.9
2019-05-05T10:31:34.576Z,1019
2019-05-05T10:32:33.270Z,1018.8
2019-05-05T10:33:36.233Z,1018.9
2019-05-05T10:34:33.532Z,1018.9
2019-05-05T10:35:34.400Z,1018.9
2019-05-05T10:36:33.735Z,1018.8
2019-05-05T10:37:34.616Z,1018.8
2019-05-05T10:38:34.080Z,1018.7
2019-05-05T10:39:33.583Z,1018.8
2019-05-05T10:40:33.911Z,1018.7
2019-05-05T10:41:33.836Z,1018.7
2019-05-05T10:42:33.713Z,1018.7
2019-05-05T10:43:34.306Z,1018.7
2019-05-05T10:44:34.117Z,1018.6
2019-05-05T10:45:33.778Z,1018.6
2019-05-05T10:46:34.146Z,1018.5
2019-05-05T10:47:33.843Z,1018.6
2019-05-05T10:48:34.073Z,1018.6
2019-05-05T10:49:33.950Z,1018.6
2019-05-05T10:50:34.282Z,1018.6
2019-05-05T10:51:34.555Z,1018.7
2019-05-05T10:52:34.027Z,1018.6
2019-05-05T10:53:34.087Z,1018.8
2019-05-05T10:54:43.910Z,1018.6
2019-05-05T10:55:34.743Z,1018.7
2019-05-05T10:56:34.571Z,1018.6
2019-05-05T10:57:34.192Z,1018.6
2019-05-05T10:58:34.109Z,1018.7
2019-05-05T10:59:34.556Z,1018.6
2019-05-05T11:00:34.185Z,1018.7
2019-05-05T11:01:34.208Z,1018.7
2019-05-05T11:02:34.690Z,1018.6
2019-05-05T11:03:34.469Z,1018.7
2019-05-05T11:04:34.289Z,1018.7
2019-05-05T11:05:34.289Z,1018.7
2019-05-05T11:06:34.356Z,1018.7
2019-05-05T11:07:35.384Z,1018.6
2019-05-05T11:08:34.948Z,1018.7
2019-05-05T11:09:34.414Z,1018.6
2019-05-05T11:10:34.432Z,1018.6
2019-05-05T11:11:34.475Z,1018.6
2019-05-05T11:12:34.466Z,1018.6
2019-05-05T11:13:34.588Z,1018.6
2019-05-05T11:14:34.508Z,1018.6
2019-05-05T11:15:35.519Z,1018.6
2019-05-05T11:16:34.514Z,1018.5
2019-05-05T11:17:34.513Z,1018.5
2019-05-05T11:18:34.725Z,1018.5
2019-05-05T11:19:34.583Z,1018.5
2019-05-05T11:20:34.669Z,1018.5
2019-05-05T11:21:34.581Z,1018.5
2019-05-05T11:22:34.745Z,1018.4
2019-05-05T11:23:34.782Z,1018.4
2019-05-05T11:24:34.716Z,1018.4
2019-05-05T11:25:34.628Z,1018.4
2019-05-05T11:26:34.627Z,1018.5
2019-05-05T11:27:34.645Z,1018.5
2019-05-05T11:28:34.664Z,1018.4
2019-05-05T11:29:34.644Z,1018.4
2019-05-05T11:30:34.702Z,1018.4
2019-05-05T11:31:34.687Z,1018.4
2019-05-05T11:32:34.655Z,1018.4
2019-05-05T11:33:34.744Z,1018.3
2019-05-05T11:34:34.777Z,1018.3
2019-05-05T11:35:34.786Z,1018.3
2019-05-05T11:36:34.817Z,1018.3
2019-05-05T11:37:34.950Z,1018.3
2019-05-05T11:38:34.902Z,1018.3
2019-05-05T11:39:35.070Z,1018.2
2019-05-05T11:40:34.970Z,1018.3
2019-05-05T11:41:35.050Z,1018.2
2019-05-05T11:42:35.199Z,1018.3
2019-05-05T11:43:35.181Z,1018.3
2019-05-05T11:44:35.221Z,1018.4
2019-05-05T11:45:35.243Z,1018.3
2019-05-05T11:46:35.264Z,1018.3
2019-05-05T11:47:35.349Z,1018.3
2019-05-05T11:48:35.366Z,1018.3
2019-05-05T11:49:35.404Z,1018.3
2019-05-05T11:50:35.446Z,1018.3
2019-05-05T11:51:35.430Z,1018.2
2019-05-05T11:52:37.729Z,1018.3
2019-05-05T11:53:35.543Z,1018.2
2019-05-05T11:54:35.554Z,1018.3
2019-05-05T11:55:35.677Z,1018.2
2019-05-05T11:56:35.662Z,1018.1
2019-05-05T11:57:35.635Z,1018.2
2019-05-05T11:58:35.771Z,1018.3
2019-05-05T11:59:35.908Z,1018.3
2019-05-05T12:00:35.770Z,1018.3
2019-05-05T12:01:35.762Z,1018.3
2019-05-05T12:02:36.816Z,1018.3
2019-05-05T12:03:37.750Z,1018.4
2019-05-05T12:04:35.925Z,1018.3
2019-05-05T12:05:35.960Z,1018.4
2019-05-05T12:06:35.963Z,1018.3
2019-05-05T12:07:36.038Z,1018.3
2019-05-05T12:08:36.082Z,1018.4
2019-05-05T12:09:36.131Z,1018.4
2019-05-05T12:10:36.178Z,1018.5
2019-05-05T12:11:36.170Z,1018.5
2019-05-05T12:12:36.231Z,1018.4
2019-05-05T12:13:36.230Z,1018.4
2019-05-05T12:14:36.265Z,1018.4
2019-05-05T12:15:36.301Z,1018.3
2019-05-05T12:16:36.346Z,1018.4
2019-05-05T12:17:36.646Z,1018.4
2019-05-05T12:18:36.411Z,1018.4
2019-05-05T12:19:36.467Z,1018.5
2019-05-05T12:20:36.470Z,1018.4
2019-05-05T12:21:36.532Z,1018.4
2019-05-05T12:22:36.589Z,1018.5
2019-05-05T12:23:36.594Z,1018.4
2019-05-05T12:24:36.612Z,1018.5
2019-05-05T12:25:36.653Z,1018.4
2019-05-05T12:26:36.697Z,1018.3
2019-05-05T12:27:36.697Z,1018.4
2019-05-05T12:28:36.787Z,1018.4
2019-05-05T12:29:37.863Z,1018.4
2019-05-05T12:30:39.312Z,1018.3
2019-05-05T12:31:36.837Z,1018.4
2019-05-05T12:32:36.861Z,1018.4